Peoria, North Carolina
Current Conditions -  °F | °C
As of 2:55 AM on Wednesday 26 Nov 2014 (Local Time) from KTNB Reporting Station
Moderate Rain Moderate Rain  
Wind Chill: 33°   Ceiling: 2000
Heat Index: 37°   Visibility: 4mi
Dew Point: 36°   Wind: 5mph
Humidity: 98%   Direction: 290°WNW
Pressure: 29.98"   Gusts: NA
Location:  36.2666°N, 81.8431°W
Report Text: KTNB 260755Z AUTO 29004KT 4SM RA BKN020 BKN026 03/02 A2998 RMK AO2 P0008 T00250022
Loading
Personal Weather Stations






























Interactive Weather Map New forecast layout! Learn more

10-Day Weather Forecast

Advertisements
Track Severe Weather on mobile